createdAt,value
2018-06-17T00:00:57.464Z,44.93
2018-06-17T00:03:24.734Z,46.73
2018-06-17T00:05:52.190Z,44.40
2018-06-17T00:08:20.538Z,40.78
2018-06-17T00:10:47.773Z,40.30
2018-06-17T00:13:15.318Z,42.98
2018-06-17T00:15:42.537Z,41.63
2018-06-17T00:18:09.754Z,40.40
2018-06-17T00:20:36.958Z,42.17
2018-06-17T00:23:04.339Z,42.60
2018-06-17T00:25:31.521Z,43.87
2018-06-17T00:27:58.858Z,42.95
2018-06-17T00:30:26.080Z,41.55
2018-06-17T00:32:53.354Z,43.13
2018-06-17T00:35:20.704Z,41.58
2018-06-17T00:37:47.965Z,47.55
2018-06-17T00:40:15.181Z,48.23
2018-06-17T00:42:42.385Z,52.62
2018-06-17T00:45:09.621Z,54.18
2018-06-17T00:47:36.832Z,52.93
2018-06-17T00:50:04.163Z,56.77
2018-06-17T00:52:31.574Z,55.75
2018-06-17T00:54:58.874Z,57.27
2018-06-17T00:57:37.593Z,57.85
2018-06-17T01:00:04.861Z,57.97
2018-06-17T01:02:32.091Z,58.10
2018-06-17T01:04:59.366Z,57.03
2018-06-17T01:07:26.670Z,65.57
2018-06-17T01:09:54.373Z,67.32
2018-06-17T01:12:21.662Z,55.83
2018-06-17T01:14:48.913Z,63.17
2018-06-17T01:17:16.198Z,65.12
2018-06-17T01:19:43.395Z,62.30
2018-06-17T01:22:10.621Z,72.20
2018-06-17T01:24:37.821Z,63.00
2018-06-17T01:27:05.182Z,65.20
2018-06-17T01:29:32.527Z,62.78
2018-06-17T01:31:59.840Z,59.55
2018-06-17T01:34:27.101Z,58.80
2018-06-17T01:36:54.361Z,54.63
2018-06-17T01:39:21.590Z,58.78
2018-06-17T01:41:48.785Z,60.85
2018-06-17T01:44:16.198Z,62.47
2018-06-17T01:46:43.453Z,67.42
2018-06-17T01:49:10.760Z,72.08
2018-06-17T01:51:38.085Z,80.12
2018-06-17T01:54:05.302Z,83.20
2018-06-17T01:56:32.533Z,83.75
2018-06-17T01:58:59.813Z,82.82
2018-06-17T02:01:27.080Z,79.00
2018-06-17T02:04:00.085Z,79.53
2018-06-17T02:06:33.357Z,80.20
2018-06-17T02:10:08.524Z,93.70
2018-06-17T02:12:35.873Z,82.47
2018-06-17T02:15:03.205Z,75.55
2018-06-17T02:17:30.504Z,73.30
2018-06-17T02:19:57.724Z,77.10
2018-06-17T02:22:25.002Z,76.35
2018-06-17T02:24:52.262Z,69.70
2018-06-17T02:27:19.897Z,71.62
2018-06-17T02:29:47.177Z,78.90
2018-06-17T02:32:14.454Z,73.17
2018-06-17T02:34:41.706Z,77.45
2018-06-17T02:37:09.590Z,69.10
2018-06-17T02:39:36.836Z,76.82
2018-06-17T02:42:04.598Z,74.70
2018-06-17T02:44:31.821Z,71.92
2018-06-17T02:47:04.993Z,82.55
2018-06-17T02:49:35.789Z,83.65
2018-06-17T02:52:08.992Z,77.37
2018-06-17T02:54:42.228Z,84.28
2018-06-17T02:57:11.536Z,70.70
2018-06-17T02:59:39.247Z,74.82
2018-06-17T03:02:06.457Z,75.22
2018-06-17T03:04:33.710Z,67.75
2018-06-17T03:07:00.933Z,74.07
2018-06-17T03:09:28.161Z,68.92
2018-06-17T03:11:55.626Z,72.17
2018-06-17T03:14:22.902Z,67.27
2018-06-17T03:16:50.683Z,74.73
2018-06-17T03:19:17.889Z,75.12
2018-06-17T03:21:45.100Z,65.13
2018-06-17T03:24:12.310Z,63.33
2018-06-17T03:27:49.166Z,59.20
2018-06-17T03:30:22.449Z,54.80
2018-06-17T03:32:55.386Z,51.73
2018-06-17T03:35:28.402Z,59.38
2018-06-17T03:37:55.633Z,52.78
2018-06-17T03:40:22.828Z,56.10
2018-06-17T03:42:50.098Z,56.10
2018-06-17T03:45:17.294Z,54.25
2018-06-17T03:47:44.679Z,61.23
2018-06-17T03:50:11.876Z,56.68
2018-06-17T03:52:39.675Z,56.00
2018-06-17T03:55:06.940Z,55.55
2018-06-17T03:57:34.164Z,61.60
2018-06-17T04:00:01.401Z,58.15
2018-06-17T04:02:30.956Z,54.83
2018-06-17T04:05:03.860Z,60.30
2018-06-17T04:07:31.046Z,58.10
2018-06-17T04:09:58.250Z,59.87
2018-06-17T04:12:25.506Z,58.03
2018-06-17T04:17:19.433Z,65.32
2018-06-17T04:19:46.686Z,61.27
2018-06-17T04:22:13.917Z,57.27
2018-06-17T04:24:41.099Z,59.50
2018-06-17T04:27:09.004Z,60.33
2018-06-17T04:29:36.217Z,54.57
2018-06-17T04:32:03.422Z,60.57
2018-06-17T04:34:30.763Z,60.80
2018-06-17T04:36:57.957Z,60.60
2018-06-17T04:39:25.158Z,53.47
2018-06-17T04:41:52.417Z,59.47
2018-06-17T04:44:19.601Z,64.07
2018-06-17T04:46:47.210Z,56.47
2018-06-17T04:49:14.405Z,48.67
2018-06-17T04:51:41.710Z,62.23
2018-06-17T04:54:09.285Z,49.30
2018-06-17T04:56:36.488Z,54.60
2018-06-17T04:59:03.808Z,60.97
2018-06-17T05:01:31.031Z,44.87
2018-06-17T05:03:58.220Z,47.43
2018-06-17T05:06:25.462Z,56.40
2018-06-17T05:08:52.669Z,46.70
2018-06-17T05:11:20.020Z,41.50
2018-06-17T05:13:47.202Z,52.20
2018-06-17T05:16:14.420Z,48.97
2018-06-17T05:18:41.700Z,40.57
2018-06-17T05:21:08.942Z,38.23
2018-06-17T05:23:36.198Z,42.97
2018-06-17T05:26:03.412Z,41.43
2018-06-17T05:28:30.600Z,38.80
2018-06-17T05:30:57.783Z,42.03
2018-06-17T05:33:24.997Z,36.90
2018-06-17T05:35:52.250Z,33.10
2018-06-17T05:38:19.653Z,31.43
2018-06-17T05:40:46.888Z,34.10
2018-06-17T05:43:14.156Z,30.40
2018-06-17T05:45:41.346Z,29.10
2018-06-17T05:48:08.606Z,34.13
2018-06-17T05:50:35.810Z,34.20
2018-06-17T05:53:03.171Z,37.57
2018-06-17T05:55:30.357Z,29.60
2018-06-17T05:57:57.666Z,34.97
2018-06-17T06:00:24.929Z,35.80
2018-06-17T06:02:52.113Z,27.50
2018-06-17T06:05:19.360Z,27.30
2018-06-17T06:07:46.600Z,26.70
2018-06-17T06:10:13.768Z,25.90
2018-06-17T06:12:41.041Z,22.63
2018-06-17T06:15:08.293Z,26.80
2018-06-17T06:17:35.619Z,24.00
2018-06-17T06:20:03.053Z,24.10
2018-06-17T06:22:30.282Z,26.33
2018-06-17T06:24:58.025Z,22.43
2018-06-17T06:27:25.204Z,22.40
2018-06-17T06:29:53.481Z,24.63
2018-06-17T06:32:20.726Z,26.43
2018-06-17T06:34:48.020Z,20.23
2018-06-17T06:37:15.299Z,18.57
2018-06-17T06:39:42.704Z,23.73
2018-06-17T06:42:09.876Z,23.37
2018-06-17T06:44:37.088Z,21.57
2018-06-17T06:47:04.299Z,26.63
2018-06-17T06:49:31.485Z,17.77
2018-06-17T06:51:58.723Z,18.90
2018-06-17T06:54:25.964Z,19.00
2018-06-17T06:56:53.601Z,20.00
2018-06-17T06:59:20.978Z,13.83
2018-06-17T07:02:00.058Z,16.30
2018-06-17T07:04:38.936Z,17.67
2018-06-17T07:07:17.901Z,17.30
2018-06-17T07:10:50.463Z,14.37
2018-06-17T07:13:17.688Z,13.13
2018-06-17T07:15:56.442Z,14.53
2018-06-17T07:18:28.656Z,13.57
2018-06-17T07:20:55.855Z,12.37
2018-06-17T07:23:23.383Z,14.23
2018-06-17T07:26:29.816Z,11.90
2018-06-17T07:29:08.816Z,16.00
2018-06-17T07:31:36.567Z,11.90
2018-06-17T07:34:03.961Z,11.30
2018-06-17T07:36:31.192Z,8.97
2018-06-17T07:38:59.057Z,9.13
2018-06-17T07:41:26.513Z,11.77
2018-06-17T07:43:53.959Z,11.00
2018-06-17T07:46:21.163Z,8.73
2018-06-17T07:49:25.057Z,18.30
2018-06-17T07:52:04.600Z,18.93
2018-06-17T07:54:31.807Z,11.23
2018-06-17T07:56:59.002Z,15.80
2018-06-17T07:59:26.169Z,11.03
2018-06-17T08:01:53.381Z,10.07
2018-06-17T08:04:21.438Z,15.80
2018-06-17T08:06:48.655Z,12.27
2018-06-17T08:09:15.882Z,11.27
2018-06-17T08:11:43.118Z,13.20
2018-06-17T08:14:10.337Z,13.80
2018-06-17T08:16:37.561Z,11.90
2018-06-17T08:19:05.631Z,14.90
2018-06-17T08:21:32.836Z,15.90
2018-06-17T08:31:20.233Z,12.20
2018-06-17T08:33:47.540Z,8.33
2018-06-17T08:36:14.741Z,9.20
2018-06-17T08:38:42.018Z,10.30
2018-06-17T08:41:09.248Z,14.60
2018-06-17T08:43:36.452Z,7.80
2018-06-17T08:46:03.793Z,10.43
2018-06-17T08:48:31.017Z,8.67
2018-06-17T08:50:58.232Z,6.77
2018-06-17T08:53:25.494Z,7.90
2018-06-17T08:55:52.734Z,8.70
2018-06-17T08:58:20.116Z,12.93
2018-06-17T09:00:47.308Z,7.75
2018-06-17T09:03:15.543Z,7.90
2018-06-17T09:05:42.752Z,10.80
2018-06-17T09:08:09.979Z,10.50
2018-06-17T09:10:37.241Z,8.68
2018-06-17T09:13:04.781Z,9.13
2018-06-17T09:15:33.301Z,10.75
2018-06-17T09:18:00.583Z,10.05
2018-06-17T09:20:27.857Z,7.55
2018-06-17T09:22:55.216Z,8.03
2018-06-17T09:25:22.520Z,8.67
2018-06-17T09:30:32.416Z,10.30
2018-06-17T09:32:59.685Z,14.90
2018-06-17T09:35:27.156Z,8.33
2018-06-17T09:37:54.564Z,8.50
2018-06-17T09:40:21.857Z,7.42
2018-06-17T09:42:49.140Z,8.95
2018-06-17T09:45:16.402Z,8.90
2018-06-17T09:47:43.664Z,9.65
2018-06-17T09:50:11.324Z,7.42
2018-06-17T09:52:38.537Z,11.43
2018-06-17T09:55:06.013Z,9.47
2018-06-17T09:57:34.020Z,13.55
2018-06-17T10:00:01.289Z,9.73
2018-06-17T10:02:28.609Z,14.17
2018-06-17T10:14:46.508Z,9.70
2018-06-17T10:17:13.764Z,8.70
2018-06-17T10:19:41.067Z,9.55
2018-06-17T10:22:08.616Z,9.88
2018-06-17T10:24:35.797Z,9.00
2018-06-17T10:27:03.100Z,8.87
2018-06-17T10:29:30.343Z,7.07
2018-06-17T10:31:57.565Z,6.50
2018-06-17T10:34:24.794Z,8.83
2018-06-17T10:36:52.171Z,9.03
2018-06-17T10:39:19.403Z,8.67
2018-06-17T10:41:46.864Z,8.85
2018-06-17T10:44:14.146Z,9.83
2018-06-17T10:46:41.312Z,9.83
2018-06-17T10:49:08.618Z,7.58
2018-06-17T10:51:35.862Z,11.30
2018-06-17T10:54:03.144Z,8.70
2018-06-17T10:56:30.469Z,9.35
2018-06-17T10:58:57.767Z,8.90
2018-06-17T11:01:24.959Z,8.58
2018-06-17T11:04:59.054Z,9.30
2018-06-17T11:07:26.558Z,13.27
2018-06-17T11:09:53.751Z,6.37
2018-06-17T11:12:21.011Z,7.03
2018-06-17T11:14:48.206Z,7.57
2018-06-17T11:22:08.927Z,11.20
2018-06-17T11:24:36.095Z,6.17
2018-06-17T11:27:03.351Z,9.05
2018-06-17T11:29:30.498Z,8.77
2018-06-17T11:34:24.522Z,7.40
2018-06-17T11:36:51.733Z,10.47
2018-06-17T11:39:19.021Z,5.17
2018-06-17T11:41:46.220Z,7.10
2018-06-17T11:44:13.424Z,10.30
2018-06-17T11:46:40.668Z,14.80
2018-06-17T11:49:07.869Z,8.70
2018-06-17T11:51:35.072Z,7.40
2018-06-17T11:54:02.365Z,8.93
2018-06-17T11:56:29.622Z,19.50
2018-06-17T11:58:56.859Z,7.73
2018-06-17T12:01:24.088Z,11.10
2018-06-17T12:06:18.113Z,10.10
2018-06-17T12:08:45.373Z,8.65
2018-06-17T12:13:39.369Z,9.07
2018-06-17T12:16:06.621Z,9.68
2018-06-17T12:18:33.988Z,11.87
2018-06-17T12:21:01.224Z,8.70
2018-06-17T12:25:55.181Z,7.23
2018-06-17T12:28:22.540Z,9.40
2018-06-17T12:30:49.792Z,9.10
2018-06-17T12:33:16.980Z,7.10
2018-06-17T12:35:44.241Z,9.50
2018-06-17T12:38:11.429Z,7.57
2018-06-17T12:40:38.870Z,8.47
2018-06-17T12:43:06.085Z,8.03
2018-06-17T12:45:34.163Z,11.00
2018-06-17T12:48:01.410Z,8.20
2018-06-17T12:50:28.725Z,8.87
2018-06-17T12:52:55.930Z,10.87
2018-06-17T12:55:23.177Z,9.30
2018-06-17T13:00:17.179Z,6.83
2018-06-17T13:02:44.398Z,12.98
2018-06-17T13:05:12.492Z,9.98
2018-06-17T13:07:40.021Z,7.95
2018-06-17T13:10:07.350Z,8.78
2018-06-17T13:12:34.667Z,6.65
2018-06-17T13:15:01.944Z,9.18
2018-06-17T13:17:29.150Z,8.15
2018-06-17T13:29:43.400Z,9.90
2018-06-17T13:32:10.907Z,13.28
2018-06-17T13:39:31.655Z,13.93
2018-06-17T13:41:58.841Z,9.17
2018-06-17T13:44:26.063Z,6.70
2018-06-17T13:46:53.388Z,7.10
2018-06-17T13:49:20.732Z,13.80
2018-06-17T13:51:47.940Z,7.33
2018-06-17T13:54:15.193Z,8.80
2018-06-17T13:56:42.388Z,13.90
2018-06-17T13:59:09.611Z,15.00
2018-06-17T14:01:36.816Z,7.50
2018-06-17T14:04:04.172Z,9.23
2018-06-17T14:06:31.377Z,13.70
2018-06-17T14:08:58.607Z,12.55
2018-06-17T14:11:25.792Z,10.63
2018-06-17T14:13:52.970Z,13.43
2018-06-17T14:16:20.169Z,18.87
2018-06-17T14:21:14.352Z,16.32
2018-06-17T14:23:41.588Z,24.40
2018-06-17T14:26:09.121Z,15.47
2018-06-17T14:28:36.684Z,16.23
2018-06-17T14:31:03.943Z,19.13
2018-06-17T14:33:31.161Z,19.85
2018-06-17T14:35:58.484Z,13.35
2018-06-17T14:38:25.708Z,12.28
2018-06-17T14:40:59.033Z,11.53
2018-06-17T14:43:31.973Z,15.38
2018-06-17T14:46:04.923Z,14.00
2018-06-17T14:48:37.972Z,15.93
2018-06-17T14:51:10.898Z,16.80
2018-06-17T14:53:38.068Z,15.65
2018-06-17T14:56:05.344Z,12.50
2018-06-17T14:58:32.859Z,15.40
2018-06-17T15:01:00.115Z,14.33
2018-06-17T15:03:27.356Z,12.13
2018-06-17T15:05:54.631Z,11.43
2018-06-17T15:08:21.876Z,15.45
2018-06-17T15:10:49.427Z,11.77
2018-06-17T15:13:16.670Z,10.57
2018-06-17T15:15:43.949Z,13.33
2018-06-17T15:18:11.180Z,18.73
2018-06-17T15:20:38.347Z,14.80
2018-06-17T15:23:05.539Z,12.37
2018-06-17T15:25:32.807Z,10.40
2018-06-17T15:28:00.114Z,11.85
2018-06-17T15:30:27.324Z,13.20
2018-06-17T15:33:00.230Z,8.90
2018-06-17T15:38:05.636Z,15.10
2018-06-17T15:40:38.509Z,11.40
2018-06-17T15:43:05.729Z,10.08
2018-06-17T15:45:33.120Z,8.47
2018-06-17T15:48:00.370Z,10.20
2018-06-17T15:50:27.648Z,8.20
2018-06-17T15:52:54.936Z,12.10
2018-06-17T15:55:22.491Z,15.30
2018-06-17T15:57:49.723Z,11.60
2018-06-17T16:00:16.976Z,10.20
2018-06-17T16:02:44.274Z,4.30
2018-06-17T16:12:37.641Z,11.33
2018-06-17T16:15:10.642Z,11.10
2018-06-17T16:17:43.603Z,21.17
2018-06-17T16:20:16.421Z,14.05
2018-06-17T16:22:43.725Z,9.00
2018-06-17T16:25:10.949Z,11.28
2018-06-17T16:27:38.218Z,7.50
2018-06-17T16:30:05.569Z,6.87
2018-06-17T16:32:32.776Z,9.20
2018-06-17T16:35:00.104Z,12.25
2018-06-17T16:37:27.352Z,8.53
2018-06-17T16:39:54.602Z,8.08
2018-06-17T16:42:21.905Z,16.85
2018-06-17T16:44:49.262Z,11.73
2018-06-17T16:47:16.508Z,10.35
2018-06-17T16:49:43.815Z,12.53
2018-06-17T16:57:40.105Z,7.03
2018-06-17T17:00:12.401Z,9.70
2018-06-17T17:02:39.681Z,7.80
2018-06-17T17:05:06.877Z,7.78
2018-06-17T17:07:34.104Z,9.63
2018-06-17T17:10:01.499Z,10.10
2018-06-17T17:12:28.704Z,7.28
2018-06-17T17:14:55.961Z,8.38
2018-06-17T17:17:23.148Z,10.13
2018-06-17T17:19:50.388Z,10.05
2018-06-17T17:22:17.679Z,6.87
2018-06-17T17:24:44.903Z,4.77
2018-06-17T17:27:12.170Z,8.25
2018-06-17T17:29:39.385Z,5.85
2018-06-17T17:32:12.481Z,11.70
2018-06-17T17:34:45.442Z,7.85
2018-06-17T17:37:18.432Z,5.95
2018-06-17T17:39:51.324Z,9.53
2018-06-17T17:42:18.562Z,11.33
2018-06-17T17:44:51.501Z,6.87
2018-06-17T17:47:24.211Z,9.08
2018-06-17T17:49:51.860Z,10.55
2018-06-17T17:52:19.096Z,6.17
2018-06-17T17:54:46.296Z,9.53
2018-06-17T17:57:13.537Z,8.80
2018-06-17T17:59:40.768Z,6.80
2018-06-17T18:02:07.953Z,7.77
2018-06-17T18:04:35.193Z,10.53
2018-06-17T18:07:02.856Z,6.70
2018-06-17T18:09:30.921Z,6.53
2018-06-17T18:11:58.129Z,8.20
2018-06-17T18:14:25.423Z,6.92
2018-06-17T18:16:52.616Z,8.15
2018-06-17T18:19:19.823Z,8.30
2018-06-17T18:21:47.131Z,7.45
2018-06-17T18:24:14.375Z,9.15
2018-06-17T18:28:53.897Z,11.13
2018-06-17T18:33:53.612Z,9.53
2018-06-17T18:36:20.880Z,12.30
2018-06-17T18:38:48.142Z,8.10
2018-06-17T18:41:15.921Z,10.60
2018-06-17T18:43:43.365Z,7.90
2018-06-17T18:46:11.809Z,14.03
2018-06-17T18:48:39.059Z,11.00
2018-06-17T18:51:07.000Z,6.37
2018-06-17T18:53:34.338Z,6.60
2018-06-17T18:56:01.553Z,8.27
2018-06-17T18:58:28.775Z,13.63
2018-06-17T19:00:56.034Z,7.20
2018-06-17T19:03:23.196Z,7.93
2018-06-17T19:05:50.445Z,9.50
2018-06-17T19:08:23.386Z,7.67
2018-06-17T19:10:56.433Z,7.10
2018-06-17T19:13:29.360Z,8.80
2018-06-17T19:16:03.259Z,7.97
2018-06-17T19:18:30.820Z,10.70
2018-06-17T19:20:58.293Z,7.70
2018-06-17T19:23:25.435Z,10.70
2018-06-17T19:25:52.996Z,6.23
2018-06-17T19:28:20.509Z,8.23
2018-06-17T19:30:47.708Z,6.63
2018-06-17T19:33:14.908Z,4.10
2018-06-17T19:35:42.132Z,5.13
2018-06-17T19:38:09.318Z,6.33
2018-06-17T19:40:36.540Z,9.40
2018-06-17T19:43:03.808Z,6.43
2018-06-17T19:45:31.151Z,8.43
2018-06-17T19:47:58.384Z,8.87
2018-06-17T19:50:31.366Z,8.60
2018-06-17T19:53:04.235Z,10.20
2018-06-17T19:55:37.205Z,5.40
2018-06-17T19:58:10.388Z,7.10
2018-06-17T20:00:39.823Z,7.23
2018-06-17T20:03:07.041Z,9.87
2018-06-17T20:05:34.289Z,6.63
2018-06-17T20:08:01.496Z,8.73
2018-06-17T20:10:28.768Z,9.20
2018-06-17T20:12:56.065Z,5.43
2018-06-17T20:15:23.651Z,7.87
2018-06-17T20:17:50.906Z,12.43
2018-06-17T20:20:18.090Z,7.60
2018-06-17T20:22:45.291Z,8.70
2018-06-17T20:25:12.500Z,9.00
2018-06-17T20:27:39.736Z,5.67
2018-06-17T20:30:07.681Z,5.10
2018-06-17T20:32:40.743Z,6.67
2018-06-17T20:35:13.838Z,11.57
2018-06-17T20:37:46.724Z,4.80
2018-06-17T20:40:19.632Z,15.23
2018-06-17T20:42:52.551Z,10.17
2018-06-17T20:45:19.766Z,12.80
2018-06-17T20:47:46.967Z,4.70
2018-06-17T20:50:14.133Z,10.07
2018-06-17T20:52:41.603Z,6.77
2018-06-17T20:55:08.855Z,6.70
2018-06-17T20:57:36.069Z,14.90
2018-06-17T21:00:04.129Z,12.97
2018-06-17T21:02:31.288Z,11.00
2018-06-17T21:04:58.612Z,5.13
2018-06-17T21:07:25.847Z,9.40
2018-06-17T21:09:53.065Z,10.10
2018-06-17T21:12:20.236Z,13.60
2018-06-17T21:14:47.420Z,9.17
2018-06-17T21:17:14.666Z,9.73
2018-06-17T21:19:47.624Z,5.70
2018-06-17T21:22:20.452Z,10.30
2018-06-17T21:24:53.340Z,8.37
2018-06-17T21:27:26.273Z,10.40
2018-06-17T21:29:53.492Z,11.70
2018-06-17T21:32:20.665Z,11.00
2018-06-17T21:34:47.894Z,7.60
2018-06-17T21:37:15.095Z,9.30
2018-06-17T21:39:43.264Z,9.33
2018-06-17T21:42:10.513Z,8.37
2018-06-17T21:44:37.710Z,8.57
2018-06-17T21:47:04.912Z,8.87
2018-06-17T21:49:32.073Z,12.67
2018-06-17T21:51:59.318Z,9.00
2018-06-17T21:54:26.584Z,7.90
2018-06-17T21:56:53.829Z,15.20
2018-06-17T21:59:21.006Z,8.67
2018-06-17T22:01:48.245Z,10.63
2018-06-17T22:04:21.130Z,15.93
2018-06-17T22:06:48.483Z,6.10
2018-06-17T22:09:21.474Z,15.13
2018-06-17T22:11:54.460Z,10.80
2018-06-17T22:14:27.364Z,8.27
2018-06-17T22:21:54.525Z,7.08
2018-06-17T22:24:22.058Z,11.12
2018-06-17T22:26:49.257Z,7.97
2018-06-17T22:29:16.440Z,9.55
2018-06-17T22:31:43.684Z,9.75
2018-06-17T22:34:10.897Z,6.90
2018-06-17T22:36:38.078Z,10.13
2018-06-17T22:39:06.335Z,7.22
2018-06-17T22:41:33.608Z,12.13
2018-06-17T22:44:00.824Z,9.98
2018-06-17T22:46:28.121Z,7.63
2018-06-17T22:48:55.974Z,8.63
2018-06-17T22:51:25.402Z,5.53
2018-06-17T22:54:04.260Z,8.37
2018-06-17T22:56:37.293Z,7.45
2018-06-17T22:59:10.433Z,15.75
2018-06-17T23:03:45.699Z,11.23
2018-06-17T23:06:20.977Z,9.20
2018-06-17T23:08:55.226Z,11.67
2018-06-17T23:11:23.075Z,11.50
2018-06-17T23:13:50.310Z,8.33
2018-06-17T23:16:17.565Z,8.20
2018-06-17T23:18:45.033Z,10.70
2018-06-17T23:21:12.259Z,12.93
2018-06-17T23:23:39.429Z,12.47
2018-06-17T23:26:06.664Z,7.53
2018-06-17T23:28:34.111Z,16.80
2018-06-17T23:31:01.337Z,12.17
2018-06-17T23:33:28.528Z,12.03
2018-06-17T23:35:55.732Z,13.62
2018-06-17T23:38:22.912Z,13.48
2018-06-17T23:40:50.152Z,8.30
2018-06-17T23:43:17.400Z,15.33
2018-06-17T23:45:50.280Z,16.63
2018-06-17T23:48:23.133Z,11.37
2018-06-17T23:50:55.999Z,5.93
2018-06-17T23:53:28.860Z,9.93
2018-06-17T23:56:01.832Z,10.83
2018-06-17T23:58:29.064Z,15.73
